Ariadne — A8TY9 — position and weather

sailwx.info

Track history (hours):
 
Tides and Currents Weather Stations Pressure Air Temp Water Temp Dewpoint Dewpoint Depression Visibility Wind Speed Wind Dir Waves Ship Positions

Ariadne

Last reported at 2017-Dec-04 08:21 UTC. Time now 2017-Dec-18 03:23 UTC.
Position N 30°47' E 032°19'.
Warning: this ship's position is 13 days out of date.

Length 189 m; draft 12.5 m.

Type: Cargo ship. MMSI: 636014459.

Date/timePositionNaut miles runAvg speedWind from/ knotsBaromVisibWave heightAir tempDewpointWater temp
2017-Dec-04 08:21N 30°47' E 032°19'3 8.4
2017-Dec-04 08:00N 30°50' E 032°19'4 8.9
2017-Dec-04 07:31N 30°55' E 032°19'8 9.0
2017-Dec-04 06:36N 31°03' E 032°19'1 8.6
2017-Dec-04 06:30N 31°04' E 032°19'4 8.3
2017-Dec-04 06:01N 31°08' E 032°19'16 5.5
2017-Dec-04 03:12N 31°23' E 032°19'0 1.9
2017-Dec-04 02:59N 31°23' E 032°19'1 1.3
2017-Dec-04 02:29N 31°23' E 032°19'0 0.1
2017-Dec-04 01:59N 31°23' E 032°19'0 0.0
2017-Dec-03 20:41N 31°23' E 032°19'0 0.0
2017-Dec-03 19:50N 31°23' E 032°19'0 0.0
2017-Dec-03 19:20N 31°23' E 032°19'0 0.0
2017-Dec-03 18:59N 31°23' E 032°19'0 0.0
2017-Dec-03 18:26N 31°23' E 032°19'0 0.0
2017-Dec-03 17:59N 31°23' E 032°19'0 0.0
2017-Dec-03 17:29N 31°23' E 032°19'0 0.0
2017-Dec-03 16:59N 31°23' E 032°19'0 0.0
2017-Dec-03 16:29N 31°23' E 032°19'0 0.0
2017-Dec-03 14:56N 31°23' E 032°19'0 0.0
2017-Dec-03 14:29N 31°23' E 032°19'0 0.0
2017-Dec-03 13:41N 31°23' E 032°19'0 0.0
2017-Dec-03 07:50N 31°23' E 032°19'0 0.0
2017-Dec-03 07:26N 31°23' E 032°19'0 0.0
2017-Dec-03 06:59N 31°23' E 032°19'0 0.0
2017-Dec-03 06:29N 31°23' E 032°19'0 0.1
2017-Dec-03 05:50N 31°23' E 032°19'1 1.0
2017-Dec-03 05:14N 31°23' E 032°18'1 5.0
2017-Dec-03 04:58N 31°24' E 032°17'10 9.6
2017-Dec-03 03:55N 31°33' E 032°11'7111.9
2017-Dec-02 21:59N 32°01' E 030°55'612.9
2017-Dec-02 21:30N 32°03' E 030°48'  
2017-Nov-30 01:12N 36°10' E 014°47'212.2
2017-Nov-30 01:00N 36°11' E 014°44'612.5
2017-Nov-30 00:30N 36°12' E 014°36'612.7
2017-Nov-30 00:00N 36°14' E 014°29'612.4
2017-Nov-29 23:30N 36°16' E 014°22'612.5
2017-Nov-29 23:00N 36°18' E 014°14'612.1
2017-Nov-29 22:30N 36°20' E 014°07'612.0
2017-Nov-29 22:00N 36°23' E 014°01'611.6
2017-Nov-29 21:29N 36°25' E 013°54'  
2017-Nov-26 20:32N 36°01' W 005°08'113.2
2017-Nov-26 20:27N 36°01' W 005°09'613.1
2017-Nov-26 20:00N 36°02' W 005°16'611.5
2017-Nov-26 19:30N 36°05' W 005°22'3 5.5
2017-Nov-26 18:59N 36°08' W 005°22'0 0.1
2017-Nov-26 15:48N 36°08' W 005°22'0 0.1
2017-Nov-26 15:24N 36°08' W 005°22'0 0.0
2017-Nov-26 15:00N 36°08' W 005°22'0 0.0
2017-Nov-26 14:30N 36°08' W 005°22'0 0.1
2017-Nov-26 14:00N 36°08' W 005°22'0 0.0
2017-Nov-26 12:30N 36°08' W 005°22'0 0.1
2017-Nov-26 11:54N 36°08' W 005°22'0 0.1
2017-Nov-26 11:24N 36°08' W 005°22'0 0.1
2017-Nov-26 11:00N 36°08' W 005°22'0 0.1
2017-Nov-26 10:30N 36°08' W 005°22'0 0.1
2017-Nov-26 09:51N 36°08' W 005°22'0 0.0
2017-Nov-26 08:48N 36°08' W 005°22'0 0.1
2017-Nov-26 08:27N 36°08' W 005°22'0 0.0
2017-Nov-26 06:54N 36°08' W 005°22'0 0.1
2017-Nov-26 06:30N 36°08' W 005°22'0 0.1
2017-Nov-26 06:00N 36°08' W 005°22'0 0.1
2017-Nov-26 05:27N 36°08' W 005°22'0 0.2
2017-Nov-26 05:00N 36°08' W 005°22'0 0.0
2017-Nov-26 04:30N 36°08' W 005°22'0 0.1
2017-Nov-26 04:00N 36°08' W 005°22'0 0.1
2017-Nov-26 03:30N 36°08' W 005°22'0 0.1
2017-Nov-26 03:00N 36°08' W 005°22'0 0.3
2017-Nov-26 02:30N 36°08' W 005°22'0 0.1
2017-Nov-26 02:00N 36°08' W 005°22'0 0.0
2017-Nov-26 01:27N 36°08' W 005°22'0 0.0
2017-Nov-26 01:00N 36°08' W 005°22'0 0.0
2017-Nov-26 00:18N 36°08' W 005°22'0 0.1
2017-Nov-26 00:00N 36°08' W 005°22'0 0.0
2017-Nov-25 23:30N 36°08' W 005°22'0 0.0
2017-Nov-25 23:00N 36°08' W 005°22'0 0.0
2017-Nov-25 20:18N 36°08' W 005°22'0 0.0
2017-Nov-25 19:48N 36°08' W 005°22'0 0.0
2017-Nov-25 18:12N 36°08' W 005°22'0 0.1
2017-Nov-25 18:00N 36°08' W 005°22'0 0.1
2017-Nov-25 17:30N 36°08' W 005°22'0 0.0
2017-Nov-25 17:00N 36°08' W 005°22'0 0.0
2017-Nov-25 16:00N 36°08' W 005°22'0 0.1
2017-Nov-25 15:30N 36°08' W 005°22'0 0.3
2017-Nov-25 14:57N 36°08' W 005°22'0 0.1
2017-Nov-25 14:30N 36°08' W 005°22'0 0.0
2017-Nov-25 14:00N 36°08' W 005°22'0 0.1
2017-Nov-25 13:30N 36°08' W 005°22'0 0.2
2017-Nov-25 12:58N 36°08' W 005°22'1 2.5
2017-Nov-25 12:30N 36°07' W 005°22'2 3.8
2017-Nov-25 11:59N 36°05' W 005°20'0 0.6
2017-Nov-25 11:30N 36°05' W 005°20'0 0.4
2017-Nov-25 10:57N 36°05' W 005°21'3 3.6
2017-Nov-25 10:08N 36°05' W 005°17'0 2.9
2017-Nov-25 10:00N 36°05' W 005°17'0 0.6
2017-Nov-25 09:31N 36°05' W 005°16'6 8.9
2017-Nov-25 08:51N 36°02' W 005°23'411.1
2017-Nov-25 08:30N 35°59' W 005°25'10711.8
2017-Nov-24 23:26N 34°46' W 007°01'  
Track history (hours):
 
Tides and Currents Weather Stations Pressure Air Temp Water Temp Dewpoint Dewpoint Depression Visibility Wind Speed Wind Dir Waves Ship Positions

Ariadne

Last reported at 2017-Dec-04 08:21 UTC. Time now 2017-Dec-18 03:23 UTC.
Position N 30°47' E 032°19'.
Warning: this ship's position is 13 days out of date.

Length 189 m; draft 12.5 m.

Type: Cargo ship. MMSI: 636014459.

Date/timePositionNaut miles runAvg speedWind from/ knotsBaromVisibWave heightAir tempDewpointWater temp
2017-Dec-04 08:21N 30°47' E 032°19'3 8.4
2017-Dec-04 08:00N 30°50' E 032°19'4 8.9
2017-Dec-04 07:31N 30°55' E 032°19'8 9.0
2017-Dec-04 06:36N 31°03' E 032°19'1 8.6
2017-Dec-04 06:30N 31°04' E 032°19'4 8.3
2017-Dec-04 06:01N 31°08' E 032°19'16 5.5
2017-Dec-04 03:12N 31°23' E 032°19'0 1.9
2017-Dec-04 02:59N 31°23' E 032°19'1 1.3
2017-Dec-04 02:29N 31°23' E 032°19'0 0.1
2017-Dec-04 01:59N 31°23' E 032°19'0 0.0
2017-Dec-03 20:41N 31°23' E 032°19'0 0.0
2017-Dec-03 19:50N 31°23' E 032°19'0 0.0
2017-Dec-03 19:20N 31°23' E 032°19'0 0.0
2017-Dec-03 18:59N 31°23' E 032°19'0 0.0
2017-Dec-03 18:26N 31°23' E 032°19'0 0.0
2017-Dec-03 17:59N 31°23' E 032°19'0 0.0
2017-Dec-03 17:29N 31°23' E 032°19'0 0.0
2017-Dec-03 16:59N 31°23' E 032°19'0 0.0
2017-Dec-03 16:29N 31°23' E 032°19'0 0.0
2017-Dec-03 14:56N 31°23' E 032°19'0 0.0
2017-Dec-03 14:29N 31°23' E 032°19'0 0.0
2017-Dec-03 13:41N 31°23' E 032°19'0 0.0
2017-Dec-03 07:50N 31°23' E 032°19'0 0.0
2017-Dec-03 07:26N 31°23' E 032°19'0 0.0
2017-Dec-03 06:59N 31°23' E 032°19'0 0.0
2017-Dec-03 06:29N 31°23' E 032°19'0 0.1
2017-Dec-03 05:50N 31°23' E 032°19'1 1.0
2017-Dec-03 05:14N 31°23' E 032°18'1 5.0
2017-Dec-03 04:58N 31°24' E 032°17'10 9.6
2017-Dec-03 03:55N 31°33' E 032°11'7111.9
2017-Dec-02 21:59N 32°01' E 030°55'612.9
2017-Dec-02 21:30N 32°03' E 030°48'  
2017-Nov-30 01:12N 36°10' E 014°47'212.2
2017-Nov-30 01:00N 36°11' E 014°44'612.5
2017-Nov-30 00:30N 36°12' E 014°36'612.7
2017-Nov-30 00:00N 36°14' E 014°29'612.4
2017-Nov-29 23:30N 36°16' E 014°22'612.5
2017-Nov-29 23:00N 36°18' E 014°14'612.1
2017-Nov-29 22:30N 36°20' E 014°07'612.0
2017-Nov-29 22:00N 36°23' E 014°01'611.6
2017-Nov-29 21:29N 36°25' E 013°54'  
2017-Nov-26 20:32N 36°01' W 005°08'113.2
2017-Nov-26 20:27N 36°01' W 005°09'613.1
2017-Nov-26 20:00N 36°02' W 005°16'611.5
2017-Nov-26 19:30N 36°05' W 005°22'3 5.5
2017-Nov-26 18:59N 36°08' W 005°22'0 0.1
2017-Nov-26 15:48N 36°08' W 005°22'0 0.1
2017-Nov-26 15:24N 36°08' W 005°22'0 0.0
2017-Nov-26 15:00N 36°08' W 005°22'0 0.0
2017-Nov-26 14:30N 36°08' W 005°22'0 0.1
2017-Nov-26 14:00N 36°08' W 005°22'0 0.0
2017-Nov-26 12:30N 36°08' W 005°22'0 0.1
2017-Nov-26 11:54N 36°08' W 005°22'0 0.1
2017-Nov-26 11:24N 36°08' W 005°22'0 0.1
2017-Nov-26 11:00N 36°08' W 005°22'0 0.1
2017-Nov-26 10:30N 36°08' W 005°22'0 0.1
2017-Nov-26 09:51N 36°08' W 005°22'0 0.0
2017-Nov-26 08:48N 36°08' W 005°22'0 0.1
2017-Nov-26 08:27N 36°08' W 005°22'0 0.0
2017-Nov-26 06:54N 36°08' W 005°22'0 0.1
2017-Nov-26 06:30N 36°08' W 005°22'0 0.1
2017-Nov-26 06:00N 36°08' W 005°22'0 0.1
2017-Nov-26 05:27N 36°08' W 005°22'0 0.2
2017-Nov-26 05:00N 36°08' W 005°22'0 0.0
2017-Nov-26 04:30N 36°08' W 005°22'0 0.1
2017-Nov-26 04:00N 36°08' W 005°22'0 0.1
2017-Nov-26 03:30N 36°08' W 005°22'0 0.1
2017-Nov-26 03:00N 36°08' W 005°22'0 0.3
2017-Nov-26 02:30N 36°08' W 005°22'0 0.1
2017-Nov-26 02:00N 36°08' W 005°22'0 0.0
2017-Nov-26 01:27N 36°08' W 005°22'0 0.0
2017-Nov-26 01:00N 36°08' W 005°22'0 0.0
2017-Nov-26 00:18N 36°08' W 005°22'0 0.1
2017-Nov-26 00:00N 36°08' W 005°22'0 0.0
2017-Nov-25 23:30N 36°08' W 005°22'0 0.0
2017-Nov-25 23:00N 36°08' W 005°22'0 0.0
2017-Nov-25 20:18N 36°08' W 005°22'0 0.0
2017-Nov-25 19:48N 36°08' W 005°22'0 0.0
2017-Nov-25 18:12N 36°08' W 005°22'0 0.1
2017-Nov-25 18:00N 36°08' W 005°22'0 0.1
2017-Nov-25 17:30N 36°08' W 005°22'0 0.0
2017-Nov-25 17:00N 36°08' W 005°22'0 0.0
2017-Nov-25 16:00N 36°08' W 005°22'0 0.1
2017-Nov-25 15:30N 36°08' W 005°22'0 0.3
2017-Nov-25 14:57N 36°08' W 005°22'0 0.1
2017-Nov-25 14:30N 36°08' W 005°22'0 0.0
2017-Nov-25 14:00N 36°08' W 005°22'0 0.1
2017-Nov-25 13:30N 36°08' W 005°22'0 0.2
2017-Nov-25 12:58N 36°08' W 005°22'1 2.5
2017-Nov-25 12:30N 36°07' W 005°22'2 3.8
2017-Nov-25 11:59N 36°05' W 005°20'0 0.6
2017-Nov-25 11:30N 36°05' W 005°20'0 0.4
2017-Nov-25 10:57N 36°05' W 005°21'3 3.6
2017-Nov-25 10:08N 36°05' W 005°17'0 2.9
2017-Nov-25 10:00N 36°05' W 005°17'0 0.6
2017-Nov-25 09:31N 36°05' W 005°16'6 8.9
2017-Nov-25 08:51N 36°02' W 005°23'411.1
2017-Nov-25 08:30N 35°59' W 005°25'10711.8
2017-Nov-24 23:26N 34°46' W 007°01'  

Dump ship's entire track history